Time;durP1;ratioP1;P1;durP2;ratioP2;P2;SDS_P1;SDS_P2;PMS_P1;PMS_P2;Temp;Humidity;BMP_temperature;BMP_pressure;BME280_temperature;BME280_humidity;BME280_pressure;Samples;Min_cycle;Max_cycle;Signal;HPM_P1;HPM_P2
2022/06/22 00:01:59;;;;;;;32.90;31.03;;;23.20;75.10;;;;;;5032998;28;20532;-70
2022/06/22 00:04:29;;;;;;;33.07;31.20;;;23.10;75.30;;;;;;5025803;28;20461;-70
2022/06/22 00:06:58;;;;;;;30.80;29.00;;;23.10;75.40;;;;;;5026115;28;20601;-70
2022/06/22 00:09:29;;;;;;;31.93;30.13;;;23.10;75.30;;;;;;5029521;28;20564;-71
2022/06/22 00:11:58;;;;;;;32.13;30.07;;;23.10;75.30;;;;;;5025959;28;20578;-69
2022/06/22 00:14:30;;;;;;;31.90;30.20;;;23.10;75.60;;;;;;5019607;28;20500;-70
2022/06/22 00:16:58;;;;;;;32.73;30.73;;;23.00;76.00;;;;;;5024989;28;20493;-71
2022/06/22 00:19:30;;;;;;;32.40;30.60;;;23.00;76.40;;;;;;5028834;28;20488;-70
2022/06/22 00:21:58;;;;;;;33.17;31.07;;;22.90;76.60;;;;;;5024545;28;20544;-70
2022/06/22 00:24:39;;;;;;;32.03;30.20;;;22.90;76.80;;;;;;5026643;28;20921;-70
2022/06/22 00:27:19;;;;;;;32.00;30.10;;;22.90;76.90;;;;;;5019359;28;20483;-70
2022/06/22 00:30:00;;;;;;;31.60;29.70;;;22.80;77.10;;;;;;5023110;28;20532;-69
2022/06/22 00:32:29;;;;;;;32.07;30.20;;;22.80;77.10;;;;;;5037370;28;21021;-70
2022/06/22 00:34:56;;;;;;;33.83;31.73;;;22.80;77.20;;;;;;5026620;28;20537;-70
2022/06/22 00:37:29;;;;;;;31.97;30.10;;;22.70;77.40;;;;;;5026866;28;20477;-70
2022/06/22 00:40:00;;;;;;;32.10;30.30;;;22.70;77.40;;;;;;5029718;28;20462;-70
2022/06/22 00:42:31;;;;;;;32.73;30.77;;;22.60;77.80;;;;;;5038238;28;20556;-70
2022/06/22 00:45:03;;;;;;;30.73;29.03;;;22.60;77.70;;;;;;5031851;28;21308;-70
2022/06/22 00:47:33;;;;;;;31.70;29.90;;;22.60;77.80;;;;;;5028289;28;20829;-70
2022/06/22 00:50:06;;;;;;;31.60;29.50;;;22.70;77.70;;;;;;5025970;28;20455;-70
2022/06/22 00:52:37;;;;;;;31.43;29.50;;;22.70;77.70;;;;;;5035967;28;20557;-70
2022/06/22 00:55:16;;;;;;;31.50;29.70;;;22.70;77.60;;;;;;5015256;28;20448;-70
2022/06/22 00:57:49;;;;;;;32.70;30.90;;;22.70;77.60;;;;;;5025221;28;21059;-70
2022/06/22 01:00:19;;;;;;;31.73;29.67;;;22.70;77.70;;;;;;5028358;28;20540;-70
2022/06/22 01:02:52;;;;;;;32.50;30.57;;;22.60;78.10;;;;;;5034738;28;20465;-70
2022/06/22 01:05:25;;;;;;;32.63;30.73;;;22.50;78.30;;;;;;5029213;28;20548;-70
2022/06/22 01:08:02;;;;;;;31.67;29.60;;;22.50;78.30;;;;;;5027414;28;20473;-69
2022/06/22 01:10:35;;;;;;;31.57;29.67;;;22.50;78.50;;;;;;5024243;28;20551;-70
2022/06/22 01:13:07;;;;;;;31.37;29.47;;;22.50;78.50;;;;;;5020874;28;20493;-70
2022/06/22 01:15:38;;;;;;;31.40;29.27;;;22.50;78.50;;;;;;5024081;28;20465;-69
2022/06/22 01:18:11;;;;;;;30.40;28.60;;;22.50;78.50;;;;;;5027811;28;20476;-70
2022/06/22 01:20:51;;;;;;;31.00;29.00;;;22.50;78.50;;;;;;5023704;28;21042;-69
2022/06/22 01:23:55;;;;;;;31.20;29.50;;;22.50;78.40;;;;;;5030722;28;20462;-70
2022/06/22 01:26:41;;;;;;;31.10;29.30;;;22.50;78.60;;;;;;5035659;28;20566;-70
2022/06/22 01:29:15;;;;;;;34.03;31.93;;;22.50;78.60;;;;;;5033206;28;20462;-71
2022/06/22 01:31:49;;;;;;;32.30;30.43;;;22.50;78.70;;;;;;5028851;28;20462;-71
2022/06/22 01:34:19;;;;;;;33.43;31.20;;;22.50;78.70;;;;;;5029727;28;21011;-70
2022/06/22 01:36:47;;;;;;;31.97;29.77;;;22.50;78.80;;;;;;5030520;28;20565;-70
2022/06/22 01:39:15;;;;;;;32.20;30.23;;;22.50;78.80;;;;;;5033319;28;20477;-70
2022/06/22 01:41:48;;;;;;;31.03;28.93;;;22.50;78.80;;;;;;5033047;28;20469;-70
2022/06/22 01:44:23;;;;;;;31.50;29.70;;;22.50;78.60;;;;;;5027882;28;20550;-69
2022/06/22 01:47:11;;;;;;;32.80;30.90;;;22.50;78.80;;;;;;5033546;28;20482;-70
2022/06/22 01:49:44;;;;;;;31.00;29.30;;;22.50;78.80;;;;;;5027987;28;20583;-70
2022/06/22 01:52:15;;;;;;;32.17;29.77;;;22.50;78.80;;;;;;5029505;28;20457;-70
2022/06/22 01:54:50;;;;;;;32.03;29.93;;;22.50;78.90;;;;;;5018907;28;20546;-70
2022/06/22 01:57:21;;;;;;;32.10;30.03;;;22.50;79.00;;;;;;5028048;28;20479;-72
2022/06/22 01:59:57;;;;;;;32.53;30.63;;;22.60;78.80;;;;;;5027236;28;20474;-72
2022/06/22 02:02:29;;;;;;;32.80;30.70;;;22.60;78.80;;;;;;5029683;28;20969;-72
2022/06/22 02:05:00;;;;;;;30.70;28.70;;;22.60;78.80;;;;;;5028727;28;20464;-72
2022/06/22 02:07:48;;;;;;;30.63;28.73;;;22.50;79.10;;;;;;5037152;28;20483;-72
2022/06/22 02:10:30;;;;;;;31.10;29.03;;;22.50;79.10;;;;;;5026323;28;20817;-72
2022/06/22 02:13:08;;;;;;;31.87;29.97;;;22.50;79.20;;;;;;5031039;28;20468;-73
2022/06/22 02:15:54;;;;;;;33.10;31.03;;;22.60;79.00;;;;;;5026942;28;20831;-72
2022/06/22 02:18:26;;;;;;;31.70;29.70;;;22.60;79.20;;;;;;5027537;28;20486;-73
2022/06/22 02:20:54;;;;;;;30.93;29.13;;;22.50;79.10;;;;;;5027417;28;21007;-73
2022/06/22 02:23:25;;;;;;;31.73;29.63;;;22.60;79.00;;;;;;5027648;28;20474;-73
2022/06/22 02:26:08;;;;;;;31.00;29.00;;;22.60;78.90;;;;;;5028154;28;20464;-72
2022/06/22 02:28:35;;;;;;;30.40;28.53;;;22.60;79.10;;;;;;5031392;28;20577;-72
2022/06/22 02:31:04;;;;;;;31.83;29.60;;;22.60;78.90;;;;;;5028212;28;20823;-72
2022/06/22 02:33:33;;;;;;;31.27;29.37;;;22.60;78.90;;;;;;5025831;28;20546;-72
2022/06/22 02:36:01;;;;;;;31.30;29.53;;;22.60;79.10;;;;;;5036105;28;20467;-72
2022/06/22 02:38:28;;;;;;;31.70;29.93;;;22.60;79.10;;;;;;5031586;28;21078;-72
2022/06/22 02:46:33;;;;;;;30.40;28.60;;;22.40;80.30;;;;;;5033665;28;20535;-73
2022/06/22 02:49:07;;;;;;;31.67;29.57;;;22.10;81.30;;;;;;5025044;28;20465;-73
2022/06/22 02:51:38;;;;;;;32.77;30.40;;;22.00;81.50;;;;;;5027871;28;20462;-73
2022/06/22 02:54:10;;;;;;;31.13;29.33;;;22.10;81.70;;;;;;5024483;28;20937;-73
2022/06/22 02:56:40;;;;;;;31.47;29.33;;;22.10;81.90;;;;;;5039170;28;20563;-72
2022/06/22 02:59:10;;;;;;;31.67;29.70;;;22.20;82.10;;;;;;5027024;28;20474;-72
2022/06/22 03:01:39;;;;;;;31.70;29.60;;;22.20;82.10;;;;;;5030855;28;20564;-72
2022/06/22 03:04:11;;;;;;;32.37;30.20;;;22.30;81.80;;;;;;5025297;28;20460;-72
2022/06/22 03:06:43;;;;;;;33.03;30.63;;;22.40;81.40;;;;;;5033986;28;20561;-72
2022/06/22 03:09:10;;;;;;;33.00;30.90;;;22.40;81.20;;;;;;5026597;28;20958;-72
2022/06/22 03:11:41;;;;;;;32.50;30.60;;;22.30;81.40;;;;;;5028405;28;21008;-73
2022/06/22 03:14:18;;;;;;;32.70;30.50;;;22.30;81.80;;;;;;5027322;28;20882;-72
2022/06/22 03:16:53;;;;;;;32.87;30.80;;;22.30;81.70;;;;;;5035466;28;20565;-72
2022/06/22 03:19:26;;;;;;;38.47;35.93;;;22.30;81.70;;;;;;5025019;28;20480;-72
2022/06/22 03:21:54;;;;;;;35.07;32.77;;;22.30;81.50;;;;;;5032236;28;20547;-72
2022/06/22 03:24:33;;;;;;;36.53;34.33;;;22.30;81.50;;;;;;5027554;28;20912;-72
2022/06/22 03:27:04;;;;;;;38.27;35.87;;;22.30;81.60;;;;;;5038446;28;21068;-72
2022/06/22 03:29:35;;;;;;;32.63;30.60;;;22.30;81.80;;;;;;5026560;28;20503;-73
2022/06/22 03:32:09;;;;;;;33.17;31.17;;;22.30;81.90;;;;;;5022676;28;20464;-72
2022/06/22 03:34:41;;;;;;;32.87;30.70;;;22.30;81.70;;;;;;5025945;28;20826;-73
2022/06/22 03:37:13;;;;;;;33.63;31.53;;;22.30;82.00;;;;;;5021230;28;20556;-72
2022/06/22 03:39:45;;;;;;;31.80;29.80;;;22.30;82.10;;;;;;5025178;28;20486;-72
2022/06/22 03:42:29;;;;;;;31.47;29.57;;;22.30;82.20;;;;;;5026928;28;20479;-72
2022/06/22 03:45:03;;;;;;;38.23;35.73;;;22.30;82.40;;;;;;5027016;28;20544;-70
2022/06/22 03:47:36;;;;;;;32.80;30.90;;;22.20;82.80;;;;;;5024805;28;20481;-70
2022/06/22 03:50:12;;;;;;;32.17;29.90;;;22.20;82.60;;;;;;5020125;28;20449;-70
2022/06/22 03:52:48;;;;;;;32.60;30.70;;;22.20;82.70;;;;;;5025336;28;20452;-70
2022/06/22 03:55:18;;;;;;;31.87;29.77;;;22.20;82.50;;;;;;5035842;28;20460;-70
2022/06/22 03:57:49;;;;;;;32.30;29.87;;;22.30;82.00;;;;;;5030398;28;20561;-70
2022/06/22 04:00:17;;;;;;;37.70;35.40;;;22.30;82.10;;;;;;5024889;28;20479;-71
2022/06/22 04:02:45;;;;;;;32.93;30.73;;;22.40;81.80;;;;;;5025567;28;20466;-70
2022/06/22 04:05:17;;;;;;;35.63;33.53;;;22.40;81.70;;;;;;5030251;28;20471;-71
2022/06/22 04:07:44;;;;;;;37.10;34.73;;;22.50;81.40;;;;;;5031002;28;20493;-70
2022/06/22 04:10:34;;;;;;;33.67;31.57;;;22.50;81.10;;;;;;5022332;28;20951;-70
2022/06/22 04:13:06;;;;;;;35.23;33.00;;;22.60;80.90;;;;;;5024299;28;20939;-70
2022/06/22 04:15:37;;;;;;;32.33;30.40;;;22.60;80.80;;;;;;5023272;28;20507;-70
2022/06/22 04:18:13;;;;;;;34.87;32.77;;;22.70;80.60;;;;;;5029111;28;20485;-70
2022/06/22 04:20:52;;;;;;;34.10;31.90;;;22.70;80.40;;;;;;5026912;28;20955;-71
2022/06/22 04:23:31;;;;;;;36.03;33.60;;;22.70;80.50;;;;;;5029247;28;20461;-71
2022/06/22 04:26:02;;;;;;;33.70;31.53;;;22.80;80.30;;;;;;5033841;28;20510;-70
2022/06/22 04:28:34;;;;;;;37.53;35.13;;;22.80;80.10;;;;;;5025301;28;20579;-70
2022/06/22 04:31:02;;;;;;;35.57;33.20;;;22.90;79.80;;;;;;5026812;28;20482;-73
2022/06/22 04:33:36;;;;;;;40.17;37.70;;;22.80;79.80;;;;;;5024742;28;20952;-73
2022/06/22 04:36:07;;;;;;;33.93;31.50;;;22.70;80.30;;;;;;5035676;28;20465;-73
2022/06/22 04:38:39;;;;;;;33.43;31.23;;;22.70;80.80;;;;;;5024911;28;21011;-74
2022/06/22 04:41:19;;;;;;;35.57;32.90;;;22.70;80.60;;;;;;5032847;28;20457;-73
2022/06/22 04:43:47;;;;;;;32.93;31.03;;;22.80;80.50;;;;;;5016845;28;20555;-80
2022/06/22 04:46:21;;;;;;;35.13;32.93;;;22.80;80.40;;;;;;5026923;28;20974;-74
2022/06/22 04:48:53;;;;;;;34.53;32.30;;;22.90;80.10;;;;;;5026222;28;20458;-73
2022/06/22 04:51:24;;;;;;;32.93;30.83;;;23.00;79.70;;;;;;5026366;28;20469;-72
2022/06/22 04:53:56;;;;;;;35.70;33.50;;;23.10;79.30;;;;;;5024902;28;20567;-74
2022/06/22 04:56:29;;;;;;;34.93;32.43;;;23.10;79.10;;;;;;5022443;28;20615;-72
2022/06/22 04:58:59;;;;;;;37.43;34.80;;;23.10;79.20;;;;;;5024717;28;20472;-74
2022/06/22 05:01:29;;;;;;;33.70;31.60;;;23.00;79.60;;;;;;5027578;28;20454;-72
2022/06/22 05:04:01;;;;;;;34.73;32.63;;;22.90;80.00;;;;;;5025958;28;20455;-73
2022/06/22 05:06:33;;;;;;;35.53;33.33;;;23.00;80.10;;;;;;5027451;28;20481;-74
2022/06/22 05:09:04;;;;;;;34.83;32.63;;;23.00;79.90;;;;;;5026700;28;20466;-76
2022/06/22 05:11:37;;;;;;;39.80;37.30;;;23.10;79.60;;;;;;5023625;28;20463;-75
2022/06/22 05:14:14;;;;;;;34.83;32.60;;;23.30;79.20;;;;;;5022137;28;20518;-75
2022/06/22 05:16:42;;;;;;;34.60;32.50;;;23.50;78.80;;;;;;5028043;28;20555;-74
2022/06/22 05:19:14;;;;;;;35.60;33.40;;;23.60;78.80;;;;;;5028711;28;20479;-79
2022/06/22 05:21:44;;;;;;;37.63;35.53;;;23.70;78.30;;;;;;5032459;28;20456;-75
2022/06/22 05:24:19;;;;;;;38.13;35.80;;;23.90;77.40;;;;;;5028326;28;20456;-74
2022/06/22 05:26:47;;;;;;;35.53;33.23;;;23.90;76.70;;;;;;5045743;28;20906;-78
2022/06/22 05:29:19;;;;;;;35.90;33.70;;;23.80;77.20;;;;;;5021684;28;20464;-79
2022/06/22 05:31:50;;;;;;;36.07;33.87;;;23.80;77.10;;;;;;5035495;28;20461;-74
2022/06/22 05:34:24;;;;;;;35.93;33.70;;;23.60;77.40;;;;;;5028539;28;20463;-75
2022/06/22 05:36:54;;;;;;;37.77;35.50;;;23.70;77.30;;;;;;5032921;28;20476;-74
2022/06/22 05:39:21;;;;;;;38.63;36.00;;;24.00;77.20;;;;;;5024705;28;20613;-74
2022/06/22 05:41:50;;;;;;;36.33;34.17;;;24.30;76.60;;;;;;5025600;28;20556;-75
2022/06/22 05:44:19;;;;;;;34.90;32.80;;;24.40;76.10;;;;;;5024140;28;20453;-74
2022/06/22 05:46:51;;;;;;;36.20;33.80;;;24.70;74.90;;;;;;5032988;28;20563;-75
2022/06/22 05:49:21;;;;;;;37.10;34.90;;;24.80;74.60;;;;;;5030396;28;20453;-74
2022/06/22 05:51:55;;;;;;;37.07;34.63;;;24.90;73.90;;;;;;5031602;28;20555;-73
2022/06/22 05:54:28;;;;;;;37.30;35.00;;;25.10;73.10;;;;;;5021023;28;21073;-72
2022/06/22 05:57:01;;;;;;;40.03;37.53;;;25.10;73.10;;;;;;5026296;28;20480;-71
2022/06/22 05:59:35;;;;;;;39.10;36.70;;;25.20;72.20;;;;;;5027514;28;20486;-71
2022/06/22 06:02:08;;;;;;;40.53;38.13;;;25.20;71.70;;;;;;5043697;28;20539;-70
2022/06/22 06:04:42;;;;;;;38.20;35.90;;;25.10;70.90;;;;;;5037524;28;20847;-71
2022/06/22 06:07:16;;;;;;;39.50;36.80;;;25.20;71.20;;;;;;5039690;28;20475;-71
2022/06/22 06:09:43;;;;;;;42.33;39.67;;;25.20;70.60;;;;;;5036039;28;20479;-72
2022/06/22 06:12:15;;;;;;;36.93;34.63;;;25.30;70.80;;;;;;5050337;28;20538;-71
2022/06/22 06:14:47;;;;;;;38.30;35.90;;;25.40;70.60;;;;;;5039547;28;20455;-71
2022/06/22 06:17:17;;;;;;;38.77;36.30;;;25.50;70.10;;;;;;5039993;28;20477;-71
2022/06/22 06:19:52;;;;;;;42.73;39.97;;;25.50;69.20;;;;;;5035290;28;20481;-70
2022/06/22 06:22:20;;;;;;;37.13;34.73;;;25.50;69.50;;;;;;5051507;28;20550;-71
2022/06/22 06:27:39;;;;;;;38.93;36.43;;;25.40;68.50;;;;;;5041654;28;20613;-68
2022/06/22 06:30:13;;;;;;;37.70;35.07;;;25.10;69.50;;;;;;5034092;28;20775;-68
2022/06/22 06:32:46;;;;;;;37.73;35.03;;;25.00;70.00;;;;;;5049897;28;20616;-72
2022/06/22 06:35:21;;;;;;;39.03;36.73;;;24.90;70.90;;;;;;5014781;28;20489;-71
2022/06/22 06:37:58;;;;;;;40.97;38.00;;;25.00;70.80;;;;;;5037451;28;20861;-70
2022/06/22 06:40:32;;;;;;;39.37;36.80;;;25.10;71.00;;;;;;5037259;28;20602;-71
2022/06/22 06:43:10;;;;;;;40.80;38.37;;;24.90;71.30;;;;;;5041612;28;20967;-71
2022/06/22 06:45:37;;;;;;;39.73;37.33;;;24.80;71.80;;;;;;5026943;28;20486;-70
2022/06/22 06:48:09;;;;;;;39.80;37.20;;;24.70;72.40;;;;;;5024051;28;20999;-70
2022/06/22 06:50:40;;;;;;;37.57;35.27;;;24.60;73.00;;;;;;5038978;28;20546;-71
2022/06/22 06:53:19;;;;;;;40.53;37.70;;;24.30;73.80;;;;;;5043285;28;20491;-70
2022/06/22 06:55:50;;;;;;;36.93;34.47;;;24.30;73.80;;;;;;5033047;28;20465;-71
2022/06/22 06:58:30;;;;;;;35.37;33.30;;;24.40;73.90;;;;;;5039938;28;20490;-71
2022/06/22 07:00:58;;;;;;;39.07;36.37;;;24.40;74.30;;;;;;5037167;28;20479;-71
2022/06/22 07:03:28;;;;;;;39.10;36.70;;;24.50;74.50;;;;;;5032906;28;20486;-71
2022/06/22 07:05:57;;;;;;;37.37;34.67;;;24.60;74.10;;;;;;5031709;28;20555;-71
2022/06/22 07:08:29;;;;;;;35.00;32.47;;;24.50;73.00;;;;;;5042431;28;20567;-70
2022/06/22 07:11:01;;;;;;;34.50;32.37;;;24.30;73.50;;;;;;5030530;28;20452;-70
2022/06/22 07:13:33;;;;;;;37.03;34.60;;;24.20;73.30;;;;;;5029739;28;20468;-72
2022/06/22 07:16:06;;;;;;;39.97;37.37;;;24.20;73.90;;;;;;5042197;28;20546;-70
2022/06/22 07:18:37;;;;;;;37.20;34.90;;;24.10;73.50;;;;;;5043227;28;20471;-68
2022/06/22 07:21:15;;;;;;;36.30;33.90;;;24.10;72.30;;;;;;5029544;28;20841;-69
2022/06/22 07:23:49;;;;;;;38.30;35.90;;;23.70;73.10;;;;;;5031691;28;20507;-69
2022/06/22 07:26:29;;;;;;;38.03;35.50;;;23.60;73.60;;;;;;5043854;28;20885;-68
2022/06/22 07:29:01;;;;;;;38.63;36.03;;;23.50;74.80;;;;;;5037364;28;20458;-68
2022/06/22 07:31:31;;;;;;;37.20;34.80;;;23.50;74.70;;;;;;5045432;28;20967;-69
2022/06/22 07:34:03;;;;;;;39.37;36.47;;;23.50;74.40;;;;;;5038993;28;20833;-68
2022/06/22 07:36:36;;;;;;;37.87;35.30;;;23.50;74.60;;;;;;5040937;28;21043;-68
2022/06/22 07:39:09;;;;;;;37.40;34.63;;;23.70;73.90;;;;;;5035555;28;20962;-68
2022/06/22 07:41:36;;;;;;;37.43;34.83;;;23.60;73.90;;;;;;5046179;28;20485;-68
2022/06/22 07:44:07;;;;;;;41.03;37.93;;;23.50;74.60;;;;;;5038392;28;20481;-68
2022/06/22 07:46:37;;;;;;;35.57;33.30;;;23.40;74.10;;;;;;5046148;28;20600;-68
2022/06/22 07:49:10;;;;;;;37.10;34.80;;;23.30;75.10;;;;;;5028855;28;20522;-68
2022/06/22 07:51:45;;;;;;;36.90;34.43;;;23.40;74.60;;;;;;5040656;28;20886;-68
2022/06/22 07:54:17;;;;;;;38.13;35.47;;;23.50;74.50;;;;;;5031875;28;20472;-68
2022/06/22 07:56:54;;;;;;;36.93;34.37;;;23.60;74.00;;;;;;5045442;28;20650;-71
2022/06/22 07:59:26;;;;;;;38.47;35.87;;;23.60;73.80;;;;;;5022572;28;20980;-70
2022/06/22 08:01:56;;;;;;;36.60;34.30;;;23.70;73.90;;;;;;5047729;28;20483;-71
2022/06/22 08:04:28;;;;;;;38.87;36.07;;;23.90;73.80;;;;;;5034732;28;20475;-71
2022/06/22 08:07:00;;;;;;;35.70;33.40;;;24.10;73.00;;;;;;5035416;28;20570;-72
2022/06/22 08:09:34;;;;;;;40.13;37.53;;;24.40;72.50;;;;;;5032695;28;20941;-71
2022/06/22 08:12:07;;;;;;;38.40;35.73;;;24.60;72.50;;;;;;5022203;28;20953;-70
2022/06/22 08:14:38;;;;;;;37.30;34.90;;;24.90;72.10;;;;;;5026859;28;20959;-72
2022/06/22 08:17:12;;;;;;;38.67;36.17;;;25.10;71.70;;;;;;5034567;28;20479;-71
2022/06/22 08:19:39;;;;;;;38.07;35.47;;;25.20;71.60;;;;;;5031312;28;20992;-71
2022/06/22 08:22:11;;;;;;;38.37;35.57;;;25.30;71.20;;;;;;5048525;28;20928;-70
2022/06/22 08:24:42;;;;;;;39.77;37.17;;;25.50;70.20;;;;;;5043640;28;20542;-70
2022/06/22 08:27:13;;;;;;;38.57;35.60;;;25.50;69.00;;;;;;5036740;28;20483;-71
2022/06/22 08:29:41;;;;;;;39.13;36.43;;;25.50;69.30;;;;;;5028915;28;20461;-71
2022/06/22 08:32:15;;;;;;;39.70;37.00;;;25.50;69.10;;;;;;5037544;28;20982;-72
2022/06/22 08:34:48;;;;;;;37.50;34.87;;;25.40;68.90;;;;;;5030848;28;20526;-71
2022/06/22 08:37:22;;;;;;;41.33;38.73;;;25.40;68.40;;;;;;5037245;28;20479;-71
2022/06/22 08:39:54;;;;;;;37.57;35.17;;;25.40;68.70;;;;;;5030553;28;20540;-73
2022/06/22 08:42:32;;;;;;;39.80;37.20;;;25.30;68.90;;;;;;5046228;28;20536;-71
2022/06/22 08:45:19;;;;;;;38.43;35.57;;;25.30;68.90;;;;;;5041274;28;20559;-71
2022/06/22 08:48:05;;;;;;;40.73;38.07;;;25.40;68.10;;;;;;5038047;28;20484;-71
2022/06/22 08:50:52;;;;;;;40.07;37.30;;;25.30;67.70;;;;;;5024332;28;20513;-72
2022/06/22 08:53:45;;;;;;;41.30;37.40;;;25.20;68.10;;;;;;5044854;28;20463;-71
2022/06/22 08:56:21;;;;;;;38.27;35.77;;;25.20;68.80;;;;;;5034737;28;20548;-71
2022/06/22 08:59:15;;;;;;;39.10;36.40;;;25.20;69.50;;;;;;5017483;28;20488;-70
2022/06/22 09:01:54;;;;;;;39.17;36.63;;;25.20;69.90;;;;;;5044566;28;20475;-72
2022/06/22 09:04:45;;;;;;;39.83;37.10;;;25.30;70.70;;;;;;5044660;28;20477;-71
2022/06/22 09:07:45;;;;;;;38.80;36.10;;;25.40;71.30;;;;;;5025727;28;21018;-69
2022/06/22 09:10:39;;;;;;;37.30;34.80;;;25.40;71.20;;;;;;5015444;28;20553;-68
2022/06/22 09:13:35;;;;;;;40.50;37.80;;;25.50;69.60;;;;;;5019223;28;20478;-68
2022/06/22 09:16:13;;;;;;;38.37;35.70;;;25.50;69.10;;;;;;5023798;28;20874;-68
2022/06/22 09:18:55;;;;;;;37.90;35.30;;;25.60;69.10;;;;;;5025376;28;20464;-69
2022/06/22 09:21:35;;;;;;;41.37;38.43;;;25.70;68.90;;;;;;5027325;28;20575;-69
2022/06/22 09:24:07;;;;;;;38.63;35.83;;;25.80;68.80;;;;;;5022606;28;20549;-68
2022/06/22 09:26:44;;;;;;;40.90;38.20;;;26.00;67.30;;;;;;5036616;28;20530;-69
2022/06/22 09:29:28;;;;;;;39.37;36.87;;;26.00;67.70;;;;;;5027091;28;20653;-68
2022/06/22 09:32:15;;;;;;;39.60;36.63;;;26.10;67.70;;;;;;5047577;28;20545;-69
2022/06/22 09:35:13;;;;;;;40.20;37.53;;;26.10;67.50;;;;;;5024707;28;20517;-68
2022/06/22 09:37:54;;;;;;;37.80;35.27;;;26.10;68.00;;;;;;5047906;28;21062;-69
2022/06/22 09:40:33;;;;;;;40.90;38.30;;;26.00;65.90;;;;;;5041493;28;20575;-68
2022/06/22 09:43:34;;;;;;;40.37;37.90;;;26.00;65.90;;;;;;5030897;28;20658;-68
2022/06/22 09:46:17;;;;;;;42.03;39.43;;;26.00;65.70;;;;;;5033047;28;20522;-68
2022/06/22 09:49:07;;;;;;;38.93;36.43;;;26.10;66.20;;;;;;5041249;28;20549;-69
2022/06/22 09:51:50;;;;;;;39.83;37.10;;;26.20;66.70;;;;;;5046242;28;20455;-68
2022/06/22 09:57:35;;;;;;;40.67;37.97;;;26.40;65.00;;;;;;5027777;28;21022;-68
2022/06/22 10:00:13;;;;;;;38.53;35.97;;;26.40;65.70;;;;;;5026235;28;20551;-68
2022/06/22 10:03:16;;;;;;;41.97;39.37;;;26.40;65.40;;;;;;5041709;28;20901;-68
2022/06/22 10:06:01;;;;;;;43.23;40.00;;;26.30;65.60;;;;;;5041061;28;20549;-68
2022/06/22 10:08:55;;;;;;;40.80;38.27;;;26.20;66.10;;;;;;5042135;28;20912;-68
2022/06/22 10:11:33;;;;;;;41.07;38.47;;;26.20;65.90;;;;;;5038698;28;20469;-68
2022/06/22 10:14:45;;;;;;;40.53;37.50;;;26.10;66.20;;;;;;5038141;28;20474;-69
2022/06/22 10:17:29;;;;;;;42.53;39.60;;;26.10;66.70;;;;;;5038071;28;20478;-68
2022/06/22 10:20:14;;;;;;;42.93;39.83;;;26.00;67.60;;;;;;5032502;28;20490;-69
2022/06/22 10:22:55;;;;;;;39.43;36.60;;;26.00;67.80;;;;;;5027068;28;20814;-68
2022/06/22 10:25:48;;;;;;;44.83;41.53;;;26.00;68.90;;;;;;5036253;28;20463;-68
2022/06/22 10:28:34;;;;;;;42.60;39.43;;;26.00;69.50;;;;;;5038003;28;20596;-71
2022/06/22 10:31:14;;;;;;;39.77;37.23;;;26.00;69.80;;;;;;5022110;28;20462;-71
2022/06/22 10:34:19;;;;;;;43.80;40.87;;;25.90;70.60;;;;;;5029281;28;20479;-71
2022/06/22 10:37:06;;;;;;;42.63;39.33;;;26.00;71.60;;;;;;5026458;28;20550;-71
2022/06/22 10:39:52;;;;;;;41.67;39.07;;;25.90;72.60;;;;;;5022932;28;20491;-71
2022/06/22 10:45:32;;;;;;;43.10;40.40;;;25.90;73.20;;;;;;5036083;28;20484;-71
2022/06/22 10:48:41;;;;;;;39.90;37.30;;;25.80;74.30;;;;;;5031975;28;20476;-70
2022/06/22 10:51:18;;;;;;;40.37;37.87;;;25.80;74.10;;;;;;5036152;28;21260;-70
2022/06/22 10:54:24;;;;;;;39.63;36.93;;;25.70;74.30;;;;;;5042443;28;20454;-71
2022/06/22 10:57:06;;;;;;;39.80;37.27;;;25.40;74.70;;;;;;5048649;28;20888;-71
2022/06/22 11:00:15;;;;;;;35.70;33.60;;;25.30;73.70;;;;;;5023225;28;20463;-68
2022/06/22 11:03:24;;;;;;;39.17;36.83;;;25.20;73.70;;;;;;5041673;28;20471;-69
2022/06/22 11:06:42;;;;;;;39.27;36.77;;;25.10;74.50;;;;;;5031934;28;20939;-71
2022/06/22 11:09:28;;;;;;;36.60;34.40;;;25.10;73.80;;;;;;5035875;28;20456;-72
2022/06/22 11:12:18;;;;;;;36.33;34.10;;;25.10;74.10;;;;;;5044265;28;20452;-71
2022/06/22 11:15:08;;;;;;;38.23;35.73;;;25.10;74.00;;;;;;5025236;28;20456;-70
2022/06/22 11:17:54;;;;;;;37.10;34.90;;;25.10;73.70;;;;;;5041201;28;20480;-70
2022/06/22 11:20:36;;;;;;;36.17;34.07;;;25.20;73.00;;;;;;5030508;28;20969;-71
2022/06/22 11:23:10;;;;;;;36.07;33.83;;;25.10;73.40;;;;;;5035384;28;20474;-72
2022/06/22 11:32:46;;;;;;;39.20;36.60;;;24.90;73.10;;;;;;5035806;28;20912;-71
2022/06/22 11:35:37;;;;;;;39.10;36.40;;;24.80;73.60;;;;;;5017670;28;20496;-71
2022/06/22 11:38:27;;;;;;;37.70;35.30;;;24.60;75.20;;;;;;5041837;28;20533;-69
2022/06/22 11:41:12;;;;;;;38.67;36.37;;;24.40;75.90;;;;;;5027469;28;20463;-68
2022/06/22 11:44:07;;;;;;;38.27;35.77;;;24.30;76.90;;;;;;5043573;28;20455;-68
2022/06/22 11:46:39;;;;;;;37.90;35.60;;;24.20;77.80;;;;;;5036220;28;20766;-68
2022/06/22 11:49:38;;;;;;;41.57;39.00;;;24.20;78.00;;;;;;5032056;28;20449;-68
2022/06/22 11:52:42;;;;;;;39.50;36.90;;;24.20;77.90;;;;;;5021314;28;20849;-69
2022/06/22 11:55:23;;;;;;;39.33;36.67;;;24.40;77.50;;;;;;5023947;28;20558;-68
2022/06/22 11:58:16;;;;;;;38.30;35.90;;;24.50;77.40;;;;;;5034225;28;20542;-69
2022/06/22 12:00:56;;;;;;;40.73;38.13;;;24.60;77.30;;;;;;5028511;28;20463;-68
2022/06/22 12:04:02;;;;;;;38.07;35.60;;;24.70;77.50;;;;;;5040846;28;20510;-68
2022/06/22 12:06:49;;;;;;;38.87;36.57;;;24.90;77.40;;;;;;5045104;28;20849;-69
2022/06/22 12:09:39;;;;;;;38.50;36.00;;;25.20;77.40;;;;;;5039326;28;20455;-69
2022/06/22 12:12:40;;;;;;;37.20;34.80;;;25.20;77.00;;;;;;5022027;28;20451;-68
2022/06/22 12:15:29;;;;;;;41.10;38.20;;;25.40;76.30;;;;;;5027085;28;20466;-69
2022/06/22 12:18:12;;;;;;;38.70;36.20;;;25.50;75.90;;;;;;5041532;28;21075;-68
2022/06/22 12:20:58;;;;;;;43.17;40.53;;;25.70;75.80;;;;;;5033663;28;20496;-68
2022/06/22 12:23:37;;;;;;;43.83;41.23;;;25.90;75.60;;;;;;5035539;28;20461;-71
2022/06/22 12:26:27;;;;;;;42.97;40.27;;;26.10;75.10;;;;;;5041370;28;20465;-69
2022/06/22 12:29:16;;;;;;;46.83;43.77;;;26.30;73.90;;;;;;5041344;28;20503;-68
2022/06/22 12:31:49;;;;;;;40.47;38.00;;;26.40;73.70;;;;;;5035752;28;20438;-69
2022/06/22 12:34:25;;;;;;;44.40;41.30;;;26.40;73.40;;;;;;5035446;28;20493;-68
2022/06/22 12:36:59;;;;;;;40.33;37.73;;;26.50;73.10;;;;;;5044869;28;20480;-69
2022/06/22 12:39:29;;;;;;;39.33;36.57;;;26.50;73.00;;;;;;5040585;28;20456;-69
2022/06/22 12:42:07;;;;;;;45.17;41.80;;;26.40;73.10;;;;;;5035298;28;20485;-68
2022/06/22 12:45:02;;;;;;;37.23;34.43;;;26.40;72.70;;;;;;5033256;28;20460;-69
2022/06/22 12:47:43;;;;;;;43.50;40.70;;;26.40;72.50;;;;;;5048707;28;20839;-69
2022/06/22 12:50:39;;;;;;;42.23;38.70;;;26.40;72.00;;;;;;5033400;28;20487;-69
2022/06/22 12:53:11;;;;;;;36.67;34.10;;;26.50;71.60;;;;;;5032834;28;20692;-68
2022/06/22 12:55:41;;;;;;;37.60;35.00;;;26.50;72.10;;;;;;5027339;28;20470;-69
2022/06/22 12:58:12;;;;;;;38.03;35.23;;;26.60;72.30;;;;;;5032906;28;20548;-71
2022/06/22 13:00:43;;;;;;;38.93;36.30;;;26.80;71.40;;;;;;5042792;28;20463;-71
2022/06/22 13:03:18;;;;;;;45.43;41.90;;;26.80;71.60;;;;;;5044063;28;20493;-71
2022/06/22 13:05:45;;;;;;;42.00;39.07;;;26.90;71.90;;;;;;5028952;28;20464;-71
2022/06/22 13:08:20;;;;;;;38.60;35.97;;;27.00;71.30;;;;;;5033809;28;20550;-74
2022/06/22 13:10:50;;;;;;;36.20;33.50;;;27.00;70.90;;;;;;5038673;28;20458;-71
2022/06/22 13:13:23;;;;;;;38.27;35.43;;;27.00;70.70;;;;;;5043690;28;20556;-69
2022/06/22 13:15:57;;;;;;;41.97;38.50;;;27.00;70.90;;;;;;5039705;28;20713;-69
2022/06/22 13:18:32;;;;;;;40.57;37.03;;;27.10;70.00;;;;;;5037711;28;21059;-69
2022/06/22 13:21:05;;;;;;;34.03;31.47;;;27.10;70.10;;;;;;5031022;28;20463;-69
2022/06/22 13:23:46;;;;;;;36.23;33.47;;;27.20;69.90;;;;;;5044413;28;20486;-68
2022/06/22 13:26:22;;;;;;;36.77;33.40;;;27.20;70.20;;;;;;5046014;28;20483;-72
2022/06/22 13:28:56;;;;;;;38.00;34.90;;;27.20;69.90;;;;;;5038445;28;20543;-70
2022/06/22 13:31:29;;;;;;;38.77;35.90;;;27.10;70.30;;;;;;5046666;28;20493;-73
2022/06/22 13:33:58;;;;;;;37.43;34.47;;;27.00;70.40;;;;;;5030581;28;20511;-70
2022/06/22 13:36:34;;;;;;;36.27;33.27;;;26.90;69.80;;;;;;5043325;28;20517;-71
2022/06/22 13:39:10;;;;;;;33.50;30.90;;;27.00;69.70;;;;;;5030583;28;20554;-71